Time;durP1;ratioP1;P1;durP2;ratioP2;P2;SDS_P1;SDS_P2;PMS_P1;PMS_P2;Temp;Humidity;BMP_temperature;BMP_pressure;BME280_temperature;BME280_humidity;BME280_pressure;Samples;Min_cycle;Max_cycle;Signal;HPM_P1;HPM_P2
2022/06/30 21:18:06;;;;;;;8.20;5.60;;;;;;;27.24;52.74;98525.16;5166273;27;20282;-73
2022/06/30 21:20:34;;;;;;;7.78;6.65;;;;;;;27.29;52.63;98537.09;5165073;27;20088;-72
2022/06/30 21:23:02;;;;;;;11.02;6.55;;;;;;;27.34;52.90;98537.28;5164496;27;20054;-74
2022/06/30 21:25:29;;;;;;;39.97;33.58;;;;;;;27.41;52.97;98540.00;5164185;27;20062;-74
2022/06/30 21:27:58;;;;;;;21.42;17.92;;;;;;;27.43;53.12;98537.91;5164324;27;20055;-73
2022/06/30 21:30:26;;;;;;;12.65;10.50;;;;;;;27.44;52.90;98536.84;5164474;27;20050;-73
2022/06/30 21:32:53;;;;;;;17.95;8.73;;;;;;;27.41;53.33;98519.06;5164143;27;20062;-72
2022/06/30 21:35:23;;;;;;;82.18;43.40;;;;;;;27.51;53.14;98540.41;5164103;27;20215;-74
2022/06/30 21:37:50;;;;;;;7.80;7.00;;;;;;;27.56;53.45;98534.31;5163720;27;20051;-73
2022/06/30 21:40:18;;;;;;;10.98;6.90;;;;;;;27.59;52.86;98537.44;5163693;27;20061;-74
2022/06/30 21:42:46;;;;;;;15.38;13.77;;;;;;;27.62;52.85;98539.78;5164180;27;20055;-75
2022/06/30 21:45:13;;;;;;;42.90;34.67;;;;;;;27.64;52.76;98545.00;5163996;27;20065;-74
2022/06/30 21:47:41;;;;;;;30.00;23.60;;;;;;;27.66;52.82;98543.75;5164103;27;20058;-74
2022/06/30 21:50:09;;;;;;;13.82;12.10;;;;;;;27.68;53.06;98547.09;5163978;27;20046;-73
2022/06/30 21:52:38;;;;;;;11.32;7.43;;;;;;;27.67;53.11;98537.25;5164045;27;20071;-74
2022/06/30 21:55:06;;;;;;;10.75;9.05;;;;;;;27.61;52.95;98520.94;5164025;27;20063;-74
2022/06/30 21:57:33;;;;;;;23.80;21.25;;;;;;;27.69;52.77;98545.22;5163921;27;20051;-74
2022/06/30 22:00:01;;;;;;;13.30;10.27;;;;;;;27.68;53.01;98544.38;5163775;27;20051;-74
2022/06/30 22:02:28;;;;;;;16.52;9.43;;;;;;;27.73;52.69;98550.00;5163568;27;20055;-74
2022/06/30 22:04:55;;;;;;;7.70;6.30;;;;;;;27.73;52.93;98550.00;5163538;27;20078;-74
2022/06/30 22:07:23;;;;;;;7.90;6.03;;;;;;;27.70;52.80;98555.88;5163623;27;20211;-74
2022/06/30 22:09:51;;;;;;;6.75;6.05;;;;;;;27.68;53.09;98549.81;5163520;27;20054;-75
2022/06/30 22:12:19;;;;;;;8.32;5.15;;;;;;;27.71;52.57;98548.53;5163891;27;20043;-73
2022/06/30 22:14:46;;;;;;;9.27;5.75;;;;;;;27.70;52.94;98546.88;5163262;27;20055;-75
2022/06/30 22:17:14;;;;;;;6.68;5.28;;;;;;;27.57;52.65;98522.38;5163047;27;20058;-74
2022/06/30 22:19:41;;;;;;;5.90;5.38;;;;;;;27.70;52.80;98545.00;5162607;27;20291;-74
2022/06/30 22:22:09;;;;;;;20.73;18.63;;;;;;;27.71;52.73;98545.81;5162929;27;20055;-74
2022/06/30 22:24:36;;;;;;;16.88;14.52;;;;;;;27.69;52.81;98550.66;5163176;27;20258;-74
2022/06/30 22:27:05;;;;;;;8.15;7.35;;;;;;;27.68;52.97;98538.94;5163700;27;20039;-73
2022/06/30 22:29:33;;;;;;;24.20;18.75;;;;;;;27.66;52.56;98542.91;5148553;27;20323;-74
2022/06/30 22:32:00;;;;;;;14.68;13.10;;;;;;;27.62;53.29;98537.06;5149031;27;20054;-74
2022/06/30 22:34:27;;;;;;;8.50;7.47;;;;;;;27.61;53.25;98538.09;5149145;27;20141;-74
2022/06/30 22:36:56;;;;;;;10.32;7.28;;;;;;;27.61;52.86;98540.81;5149122;27;20058;-74
2022/06/30 22:39:23;;;;;;;14.07;8.77;;;;;;;27.54;53.28;98541.88;5149110;27;20055;-74
2022/06/30 22:41:50;;;;;;;9.25;7.40;;;;;;;27.55;52.70;98544.38;5149011;27;20050;-74
2022/06/30 22:44:19;;;;;;;16.85;15.13;;;;;;;27.57;52.54;98544.16;5148976;27;20066;-74
2022/06/30 22:46:46;;;;;;;17.50;15.27;;;;;;;27.59;52.65;98540.16;5148922;27;20047;-74
2022/06/30 22:49:14;;;;;;;31.60;25.65;;;;;;;27.58;52.41;98541.22;5148728;27;20062;-74
2022/06/30 22:51:41;;;;;;;16.17;14.50;;;;;;;27.52;52.71;98533.91;5149179;27;20055;-74
2022/06/30 22:54:08;;;;;;;13.85;11.45;;;;;;;27.49;53.08;98529.72;5148810;27;20074;-75
2022/06/30 22:56:37;;;;;;;9.32;8.32;;;;;;;27.53;52.76;98524.69;5148966;27;20211;-75
2022/06/30 22:59:04;;;;;;;10.23;9.23;;;;;;;27.47;52.82;98523.66;5148735;27;20220;-74
2022/06/30 23:01:33;;;;;;;16.83;13.38;;;;;;;27.48;53.23;98527.22;5148693;27;20054;-75
2022/06/30 23:04:01;;;;;;;12.43;11.18;;;;;;;27.43;53.03;98522.41;5148675;27;20207;-74
2022/06/30 23:06:28;;;;;;;10.15;8.35;;;;;;;27.42;52.72;98522.63;5148413;27;20314;-74
2022/06/30 23:08:55;;;;;;;8.93;7.78;;;;;;;27.43;52.77;98525.13;5148607;27;20054;-73
2022/06/30 23:11:22;;;;;;;9.43;7.40;;;;;;;27.41;53.24;98523.69;5148341;27;20055;-74
2022/06/30 23:13:50;;;;;;;8.35;7.55;;;;;;;27.41;52.98;98521.78;5148525;27;20058;-73
2022/06/30 23:16:17;;;;;;;8.25;7.07;;;;;;;27.39;52.67;98510.28;5148196;27;20063;-74
2022/06/30 23:18:46;;;;;;;9.55;7.90;;;;;;;27.36;53.13;98518.03;5149528;27;20051;-73
2022/06/30 23:21:13;;;;;;;7.85;6.88;;;;;;;27.34;53.31;98511.97;5148399;27;20200;-73
2022/06/30 23:23:41;;;;;;;8.65;6.35;;;;;;;27.31;53.35;98515.97;5148585;27;20055;-73
2022/06/30 23:26:08;;;;;;;8.70;7.75;;;;;;;27.22;53.36;98514.47;5148013;27;20051;-73
2022/06/30 23:28:35;;;;;;;8.15;7.35;;;;;;;27.24;53.42;98522.44;5148296;27;20047;-73
2022/06/30 23:31:03;;;;;;;9.00;7.65;;;;;;;27.15;53.10;98498.16;5148491;27;20051;-73
2022/06/30 23:33:30;;;;;;;7.85;7.05;;;;;;;27.25;53.27;98513.25;5148466;27;20318;-73
2022/06/30 23:35:59;;;;;;;10.20;7.78;;;;;;;27.25;53.07;98519.53;5148410;27;20066;-73
2022/06/30 23:38:27;;;;;;;10.00;6.20;;;;;;;27.18;53.32;98524.94;5147903;27;20058;-73
2022/06/30 23:40:54;;;;;;;7.88;6.18;;;;;;;27.07;53.73;98535.63;5147138;27;20062;-73
2022/06/30 23:43:21;;;;;;;7.28;6.20;;;;;;;27.11;53.88;98524.09;5147939;27;20051;-73
2022/06/30 23:45:49;;;;;;;7.97;6.60;;;;;;;27.11;53.42;98526.00;5147788;27;20054;-74
2022/06/30 23:48:16;;;;;;;6.45;5.85;;;;;;;27.09;54.16;98528.09;5148154;27;20051;-73
2022/06/30 23:50:43;;;;;;;9.20;5.32;;;;;;;27.12;53.76;98527.66;5147880;27;20066;-74
2022/06/30 23:53:12;;;;;;;6.72;6.03;;;;;;;27.12;53.86;98531.22;5147476;27;20192;-73
